sensor_id;sensor_type;location;lat;lon;timestamp;pressure;altitude;pressure_sealevel;temperature;humidity
71964;BME280;59834;52.124;5.422;2023-05-19T00:00:58;102846.06;;;8.83;78.83
71964;BME280;59834;52.124;5.422;2023-05-19T00:03:29;102849.72;;;8.76;78.99
71964;BME280;59834;52.124;5.422;2023-05-19T00:05:57;102843.59;;;8.77;78.61
71964;BME280;59834;52.124;5.422;2023-05-19T00:08:29;102849.72;;;8.76;78.50
71964;BME280;59834;52.124;5.422;2023-05-19T00:10:57;102841.97;;;8.71;79.58
71964;BME280;59834;52.124;5.422;2023-05-19T00:13:28;102851.69;;;8.66;79.51
71964;BME280;59834;52.124;5.422;2023-05-19T00:15:55;102843.88;;;8.65;79.77
71964;BME280;59834;52.124;5.422;2023-05-19T00:18:23;102841.34;;;8.62;79.97
71964;BME280;59834;52.124;5.422;2023-05-19T00:20:51;102833.53;;;8.60;79.57
71964;BME280;59834;52.124;5.422;2023-05-19T00:23:18;102831.91;;;8.56;80.11
71964;BME280;59834;52.124;5.422;2023-05-19T00:25:53;102833.72;;;8.53;80.55
71964;BME280;59834;52.124;5.422;2023-05-19T00:28:22;102825.97;;;8.48;80.88
71964;BME280;59834;52.124;5.422;2023-05-19T00:30:51;102829.56;;;8.45;80.92
71964;BME280;59834;52.124;5.422;2023-05-19T00:33:18;102832.25;;;8.41;81.31
71964;BME280;59834;52.124;5.422;2023-05-19T00:35:45;102829.72;;;8.36;81.46
71964;BME280;59834;52.124;5.422;2023-05-19T00:38:12;102835.00;;;8.33;81.35
71964;BME280;59834;52.124;5.422;2023-05-19T00:40:41;102822.06;;;8.29;81.39
71964;BME280;59834;52.124;5.422;2023-05-19T00:43:08;102826.41;;;8.28;82.11
71964;BME280;59834;52.124;5.422;2023-05-19T00:45:35;102824.75;;;8.24;81.27
71964;BME280;59834;52.124;5.422;2023-05-19T00:48:01;102828.34;;;8.20;81.98
71964;BME280;59834;52.124;5.422;2023-05-19T00:50:28;102822.31;;;8.16;82.83
71964;BME280;59834;52.124;5.422;2023-05-19T00:52:56;102833.69;;;8.14;82.80
71964;BME280;59834;52.124;5.422;2023-05-19T00:55:29;102828.47;;;8.14;82.52
71964;BME280;59834;52.124;5.422;2023-05-19T00:57:57;102825.03;;;8.12;82.42
71964;BME280;59834;52.124;5.422;2023-05-19T01:00:26;102829.47;;;8.07;83.16
71964;BME280;59834;52.124;5.422;2023-05-19T01:02:53;102827.91;;;7.99;83.48
71964;BME280;59834;52.124;5.422;2023-05-19T01:05:22;102823.66;;;7.95;83.93
71964;BME280;59834;52.124;5.422;2023-05-19T01:07:50;102827.13;;;7.94;84.71
71964;BME280;59834;52.124;5.422;2023-05-19T01:10:20;102833.25;;;7.93;84.11
71964;BME280;59834;52.124;5.422;2023-05-19T01:12:47;102828.13;;;7.89;84.32
71964;BME280;59834;52.124;5.422;2023-05-19T01:15:16;102829.03;;;7.86;83.89
71964;BME280;59834;52.124;5.422;2023-05-19T01:17:50;102831.69;;;7.85;83.85
71964;BME280;59834;52.124;5.422;2023-05-19T01:20:27;102830.00;;;7.82;83.89
71964;BME280;59834;52.124;5.422;2023-05-19T01:28:56;102836.22;;;7.75;83.98
71964;BME280;59834;52.124;5.422;2023-05-19T01:31:27;102824.16;;;7.69;85.09
71964;BME280;59834;52.124;5.422;2023-05-19T01:33:55;102822.53;;;7.64;85.41
71964;BME280;59834;52.124;5.422;2023-05-19T01:36:25;102817.31;;;7.64;85.51
71964;BME280;59834;52.124;5.422;2023-05-19T01:38:59;102813.00;;;7.61;86.12
71964;BME280;59834;52.124;5.422;2023-05-19T01:41:26;102819.16;;;7.59;85.61
71964;BME280;59834;52.124;5.422;2023-05-19T01:43:55;102821.00;;;7.53;86.15
71964;BME280;59834;52.124;5.422;2023-05-19T01:46:23;102810.63;;;7.52;86.23
71964;BME280;59834;52.124;5.422;2023-05-19T01:48:52;102814.97;;;7.50;86.72
71964;BME280;59834;52.124;5.422;2023-05-19T01:51:21;102809.81;;;7.47;86.96
71964;BME280;59834;52.124;5.422;2023-05-19T01:53:49;102810.72;;;7.44;87.21
71964;BME280;59834;52.124;5.422;2023-05-19T01:56:31;102813.34;;;7.44;86.56
71964;BME280;59834;52.124;5.422;2023-05-19T01:59:22;102802.09;;;7.42;86.78
71964;BME280;59834;52.124;5.422;2023-05-19T02:01:56;102805.63;;;7.40;87.09
71964;BME280;59834;52.124;5.422;2023-05-19T02:04:45;102797.06;;;7.33;86.85
71964;BME280;59834;52.124;5.422;2023-05-19T02:07:25;102804.06;;;7.31;87.47
71964;BME280;59834;52.124;5.422;2023-05-19T02:10:09;102803.22;;;7.27;87.61
71964;BME280;59834;52.124;5.422;2023-05-19T02:12:37;102805.03;;;7.25;87.88
71964;BME280;59834;52.124;5.422;2023-05-19T02:15:15;102807.66;;;7.24;88.13
71964;BME280;59834;52.124;5.422;2023-05-19T02:17:44;102812.94;;;7.19;88.98
71964;BME280;59834;52.124;5.422;2023-05-19T02:20:17;102802.56;;;7.18;88.18
71964;BME280;59834;52.124;5.422;2023-05-19T02:22:45;102804.31;;;7.16;88.43
71964;BME280;59834;52.124;5.422;2023-05-19T02:25:15;102799.13;;;7.14;88.77
71964;BME280;59834;52.124;5.422;2023-05-19T02:27:42;102790.50;;;7.12;89.12
71964;BME280;59834;52.124;5.422;2023-05-19T02:30:09;102795.72;;;7.11;89.29
71964;BME280;59834;52.124;5.422;2023-05-19T02:32:39;102801.88;;;7.06;89.34
71964;BME280;59834;52.124;5.422;2023-05-19T02:35:07;102794.97;;;7.04;89.48
71964;BME280;59834;52.124;5.422;2023-05-19T02:37:35;102791.59;;;6.99;89.80
71964;BME280;59834;52.124;5.422;2023-05-19T02:40:07;102792.50;;;6.96;90.30
71964;BME280;59834;52.124;5.422;2023-05-19T02:42:34;102792.56;;;6.93;90.26
71964;BME280;59834;52.124;5.422;2023-05-19T02:45:08;102787.41;;;6.92;90.63
71964;BME280;59834;52.124;5.422;2023-05-19T02:47:37;102787.44;;;6.87;90.73
71964;BME280;59834;52.124;5.422;2023-05-19T02:50:04;102788.38;;;6.84;90.40
71964;BME280;59834;52.124;5.422;2023-05-19T02:52:31;102782.28;;;6.84;91.22
71964;BME280;59834;52.124;5.422;2023-05-19T02:54:58;102778.81;;;6.85;91.20
71964;BME280;59834;52.124;5.422;2023-05-19T02:57:25;102773.66;;;6.82;91.52
71964;BME280;59834;52.124;5.422;2023-05-19T02:59:52;102778.94;;;6.79;91.12
71964;BME280;59834;52.124;5.422;2023-05-19T03:02:21;102775.53;;;6.74;91.89
71964;BME280;59834;52.124;5.422;2023-05-19T03:04:47;102775.59;;;6.71;92.14
71964;BME280;59834;52.124;5.422;2023-05-19T03:07:19;102770.44;;;6.68;92.53
71964;BME280;59834;52.124;5.422;2023-05-19T03:09:50;102774.75;;;6.67;92.55
71964;BME280;59834;52.124;5.422;2023-05-19T03:12:18;102771.34;;;6.65;92.22
71964;BME280;59834;52.124;5.422;2023-05-19T03:14:47;102773.09;;;6.65;92.13
71964;BME280;59834;52.124;5.422;2023-05-19T03:17:15;102770.53;;;6.61;92.48
71964;BME280;59834;52.124;5.422;2023-05-19T03:19:42;102774.00;;;6.60;93.18
71964;BME280;59834;52.124;5.422;2023-05-19T03:22:10;102775.78;;;6.58;92.24
71964;BME280;59834;52.124;5.422;2023-05-19T03:24:36;102775.78;;;6.58;92.51
71964;BME280;59834;52.124;5.422;2023-05-19T03:27:03;102773.19;;;6.57;93.18
71964;BME280;59834;52.124;5.422;2023-05-19T03:29:32;102771.53;;;6.54;93.41
71964;BME280;59834;52.124;5.422;2023-05-19T03:31:59;102770.69;;;6.52;93.77
71964;BME280;59834;52.124;5.422;2023-05-19T03:34:26;102766.31;;;6.53;93.29
71964;BME280;59834;52.124;5.422;2023-05-19T03:36:52;102761.13;;;6.53;93.70
71964;BME280;59834;52.124;5.422;2023-05-19T03:39:19;102767.22;;;6.52;93.95
71964;BME280;59834;52.124;5.422;2023-05-19T03:41:54;102763.75;;;6.51;93.64
71964;BME280;59834;52.124;5.422;2023-05-19T03:44:23;102766.38;;;6.50;94.07
71964;BME280;59834;52.124;5.422;2023-05-19T03:46:51;102760.31;;;6.49;93.98
71964;BME280;59834;52.124;5.422;2023-05-19T03:49:17;102767.22;;;6.50;94.58
71964;BME280;59834;52.124;5.422;2023-05-19T03:51:45;102763.75;;;6.51;94.38
71964;BME280;59834;52.124;5.422;2023-05-19T03:54:12;102765.44;;;6.55;94.10
71964;BME280;59834;52.124;5.422;2023-05-19T03:56:39;102770.59;;;6.58;94.59
71964;BME280;59834;52.124;5.422;2023-05-19T03:59:07;102768.81;;;6.60;93.80
71964;BME280;59834;52.124;5.422;2023-05-19T04:01:36;102775.72;;;6.63;93.62
71964;BME280;59834;52.124;5.422;2023-05-19T04:04:03;102765.25;;;6.68;93.40
71964;BME280;59834;52.124;5.422;2023-05-19T04:06:30;102769.50;;;6.70;92.99
71964;BME280;59834;52.124;5.422;2023-05-19T04:08:57;102779.00;;;6.74;93.29
71964;BME280;59834;52.124;5.422;2023-05-19T04:11:23;102773.81;;;6.73;93.15
71964;BME280;59834;52.124;5.422;2023-05-19T04:13:50;102773.81;;;6.74;93.35
71964;BME280;59834;52.124;5.422;2023-05-19T04:16:17;102768.50;;;6.79;93.28
71964;BME280;59834;52.124;5.422;2023-05-19T04:18:44;102768.41;;;6.85;93.05
71964;BME280;59834;52.124;5.422;2023-05-19T04:21:11;102768.31;;;6.91;93.26
71964;BME280;59834;52.124;5.422;2023-05-19T04:23:40;102767.31;;;6.98;93.35
71964;BME280;59834;52.124;5.422;2023-05-19T04:26:08;102774.09;;;7.07;92.90
71964;BME280;59834;52.124;5.422;2023-05-19T04:28:35;102766.09;;;7.18;92.66
71964;BME280;59834;52.124;5.422;2023-05-19T04:31:04;102766.09;;;7.63;92.06
71964;BME280;59834;52.124;5.422;2023-05-19T04:33:39;102772.88;;;7.70;90.91
71964;BME280;59834;52.124;5.422;2023-05-19T04:36:08;102776.47;;;7.64;90.49
71964;BME280;59834;52.124;5.422;2023-05-19T04:38:37;102774.88;;;8.39;90.00
71964;BME280;59834;52.124;5.422;2023-05-19T04:41:05;102763.03;;;8.96;87.01
71964;BME280;59834;52.124;5.422;2023-05-19T04:43:35;102777.66;;;8.69;86.51
71964;BME280;59834;52.124;5.422;2023-05-19T04:46:07;102774.31;;;9.31;85.19
71964;BME280;59834;52.124;5.422;2023-05-19T04:48:40;102770.44;;;9.75;83.40
71964;BME280;59834;52.124;5.422;2023-05-19T04:51:08;102766.03;;;11.38;78.80
71964;BME280;59834;52.124;5.422;2023-05-19T04:53:37;102763.50;;;12.49;72.84
71964;BME280;59834;52.124;5.422;2023-05-19T04:56:05;102769.00;;;13.06;70.63
71964;BME280;59834;52.124;5.422;2023-05-19T04:58:32;102771.13;;;13.58;68.16
71964;BME280;59834;52.124;5.422;2023-05-19T05:01:00;102769.09;;;14.02;65.89
71964;BME280;59834;52.124;5.422;2023-05-19T05:03:27;102760.66;;;14.32;64.05
71964;BME280;59834;52.124;5.422;2023-05-19T05:05:53;102760.88;;;14.81;61.78
71964;BME280;59834;52.124;5.422;2023-05-19T05:08:24;102777.28;;;13.96;63.31
71964;BME280;59834;52.124;5.422;2023-05-19T05:10:51;102772.78;;;13.79;64.42
71964;BME280;59834;52.124;5.422;2023-05-19T05:13:21;102774.03;;;14.27;63.38
71964;BME280;59834;52.124;5.422;2023-05-19T05:15:51;102763.81;;;14.75;61.07
71964;BME280;59834;52.124;5.422;2023-05-19T05:18:21;102772.19;;;15.00;60.52
71964;BME280;59834;52.124;5.422;2023-05-19T05:20:48;102773.44;;;14.76;61.02
71964;BME280;59834;52.124;5.422;2023-05-19T05:23:18;102773.44;;;14.76;61.22
71964;BME280;59834;52.124;5.422;2023-05-19T05:25:45;102770.47;;;14.99;60.90
71964;BME280;59834;52.124;5.422;2023-05-19T05:28:15;102765.56;;;15.42;59.01
71964;BME280;59834;52.124;5.422;2023-05-19T05:30:42;102764.72;;;15.75;57.96
71964;BME280;59834;52.124;5.422;2023-05-19T05:33:10;102770.69;;;15.45;58.27
71964;BME280;59834;52.124;5.422;2023-05-19T05:35:40;102773.47;;;14.21;60.96
71964;BME280;59834;52.124;5.422;2023-05-19T05:38:11;102770.44;;;13.13;64.50
71964;BME280;59834;52.124;5.422;2023-05-19T05:40:39;102763.63;;;13.09;66.54
71964;BME280;59834;52.124;5.422;2023-05-19T05:43:06;102765.94;;;14.49;62.80
71964;BME280;59834;52.124;5.422;2023-05-19T05:45:33;102757.66;;;15.26;59.80
71964;BME280;59834;52.124;5.422;2023-05-19T05:48:00;102762.69;;;15.80;58.91
71964;BME280;59834;52.124;5.422;2023-05-19T05:50:27;102763.72;;;15.93;57.46
71964;BME280;59834;52.124;5.422;2023-05-19T05:52:56;102766.09;;;16.14;57.58
71964;BME280;59834;52.124;5.422;2023-05-19T05:55:23;102767.16;;;16.87;54.89
71964;BME280;59834;52.124;5.422;2023-05-19T05:57:50;102769.69;;;16.75;54.93
71964;BME280;59834;52.124;5.422;2023-05-19T06:00:17;102767.28;;;16.40;55.22
71964;BME280;59834;52.124;5.422;2023-05-19T06:02:48;102771.41;;;15.65;57.05
71964;BME280;59834;52.124;5.422;2023-05-19T06:05:16;102766.75;;;15.03;59.86
71964;BME280;59834;52.124;5.422;2023-05-19T06:07:46;102764.81;;;15.89;57.89
71964;BME280;59834;52.124;5.422;2023-05-19T06:10:12;102766.16;;;16.74;54.62
71964;BME280;59834;52.124;5.422;2023-05-19T06:12:39;102771.19;;;16.33;54.78
71964;BME280;59834;52.124;5.422;2023-05-19T06:15:09;102767.56;;;16.03;56.08
71964;BME280;59834;52.124;5.422;2023-05-19T06:17:39;102768.03;;;16.26;55.97
71964;BME280;59834;52.124;5.422;2023-05-19T06:20:06;102772.88;;;16.80;54.34
71964;BME280;59834;52.124;5.422;2023-05-19T06:22:36;102768.19;;;15.60;56.39
71964;BME280;59834;52.124;5.422;2023-05-19T06:25:04;102768.28;;;15.07;58.35
71964;BME280;59834;52.124;5.422;2023-05-19T06:27:32;102763.34;;;15.68;57.26
71964;BME280;59834;52.124;5.422;2023-05-19T06:30:04;102765.75;;;15.88;56.40
71964;BME280;59834;52.124;5.422;2023-05-19T06:32:31;102762.94;;;16.53;55.82
71964;BME280;59834;52.124;5.422;2023-05-19T06:34:58;102755.75;;;17.15;53.70
71964;BME280;59834;52.124;5.422;2023-05-19T06:37:25;102754.31;;;17.10;53.59
71964;BME280;59834;52.124;5.422;2023-05-19T06:39:52;102756.22;;;16.93;53.71
71964;BME280;59834;52.124;5.422;2023-05-19T06:42:19;102758.38;;;16.57;54.10
71964;BME280;59834;52.124;5.422;2023-05-19T06:44:51;102759.78;;;16.92;53.90
71964;BME280;59834;52.124;5.422;2023-05-19T06:47:18;102760.41;;;16.52;53.82
71964;BME280;59834;52.124;5.422;2023-05-19T06:49:46;102758.75;;;16.35;54.17
71964;BME280;59834;52.124;5.422;2023-05-19T06:52:21;102765.41;;;16.56;54.06
71964;BME280;59834;52.124;5.422;2023-05-19T06:54:48;102758.78;;;16.49;54.53
71964;BME280;59834;52.124;5.422;2023-05-19T06:57:15;102758.25;;;16.28;54.69
71964;BME280;59834;52.124;5.422;2023-05-19T06:59:42;102766.28;;;16.11;55.65
71964;BME280;59834;52.124;5.422;2023-05-19T07:02:11;102768.06;;;16.56;55.12
71964;BME280;59834;52.124;5.422;2023-05-19T07:04:38;102775.28;;;16.22;55.04
71964;BME280;59834;52.124;5.422;2023-05-19T07:07:05;102770.25;;;15.37;55.98
71964;BME280;59834;52.124;5.422;2023-05-19T07:09:32;102774.13;;;14.79;58.07
71964;BME280;59834;52.124;5.422;2023-05-19T07:11:59;102765.53;;;14.39;58.70
71964;BME280;59834;52.124;5.422;2023-05-19T07:14:26;102773.47;;;14.21;60.14
71964;BME280;59834;52.124;5.422;2023-05-19T07:16:53;102764.34;;;14.28;59.21
71964;BME280;59834;52.124;5.422;2023-05-19T07:19:22;102774.00;;;13.91;60.69
71964;BME280;59834;52.124;5.422;2023-05-19T07:21:51;102768.88;;;13.88;61.16
71964;BME280;59834;52.124;5.422;2023-05-19T07:24:19;102766.22;;;14.07;60.62
71964;BME280;59834;52.124;5.422;2023-05-19T07:26:53;102771.03;;;13.99;61.10
71964;BME280;59834;52.124;5.422;2023-05-19T07:29:20;102767.38;;;14.01;61.24
71964;BME280;59834;52.124;5.422;2023-05-19T07:31:46;102766.19;;;14.08;60.31
71964;BME280;59834;52.124;5.422;2023-05-19T07:34:15;102762.94;;;14.21;59.49
71964;BME280;59834;52.124;5.422;2023-05-19T07:36:42;102766.06;;;14.29;59.38
71964;BME280;59834;52.124;5.422;2023-05-19T07:39:11;102765.28;;;14.27;60.36
71964;BME280;59834;52.124;5.422;2023-05-19T07:41:38;102763.91;;;14.56;59.39
71964;BME280;59834;52.124;5.422;2023-05-19T07:44:09;102767.69;;;14.85;58.26
71964;BME280;59834;52.124;5.422;2023-05-19T07:46:36;102763.03;;;14.90;57.14
71964;BME280;59834;52.124;5.422;2023-05-19T07:49:03;102771.72;;;14.57;56.88
71964;BME280;59834;52.124;5.422;2023-05-19T07:51:30;102764.03;;;14.53;58.04
71964;BME280;59834;52.124;5.422;2023-05-19T07:53:57;102762.34;;;14.87;56.95
71964;BME280;59834;52.124;5.422;2023-05-19T07:56:24;102764.19;;;14.84;56.19
71964;BME280;59834;52.124;5.422;2023-05-19T07:58:50;102750.47;;;14.95;55.70
71964;BME280;59834;52.124;5.422;2023-05-19T08:01:17;102753.41;;;15.06;55.56
71964;BME280;59834;52.124;5.422;2023-05-19T08:03:44;102754.50;;;15.02;54.66
71964;BME280;59834;52.124;5.422;2023-05-19T08:06:11;102751.41;;;14.94;55.06
71964;BME280;59834;52.124;5.422;2023-05-19T08:08:40;102750.72;;;15.24;54.79
71964;BME280;59834;52.124;5.422;2023-05-19T08:11:08;102743.88;;;15.37;54.43
71964;BME280;59834;52.124;5.422;2023-05-19T08:13:36;102739.81;;;15.47;52.99
71964;BME280;59834;52.124;5.422;2023-05-19T08:16:03;102742.03;;;15.39;52.56
71964;BME280;59834;52.124;5.422;2023-05-19T08:18:31;102730.56;;;15.56;53.08
71964;BME280;59834;52.124;5.422;2023-05-19T08:20:58;102731.25;;;15.91;51.87
71964;BME280;59834;52.124;5.422;2023-05-19T08:23:26;102728.72;;;15.74;51.29
71964;BME280;59834;52.124;5.422;2023-05-19T08:25:56;102722.75;;;15.86;50.47
71964;BME280;59834;52.124;5.422;2023-05-19T08:28:22;102721.59;;;16.06;50.28
71964;BME280;59834;52.124;5.422;2023-05-19T08:30:50;102724.50;;;16.33;49.88
71964;BME280;59834;52.124;5.422;2023-05-19T08:33:21;102717.28;;;16.05;49.18
71964;BME280;59834;52.124;5.422;2023-05-19T08:35:49;102716.16;;;16.09;49.44
71964;BME280;59834;52.124;5.422;2023-05-19T08:38:16;102711.38;;;16.16;49.52
71964;BME280;59834;52.124;5.422;2023-05-19T08:40:46;102716.13;;;16.25;48.38
71964;BME280;59834;52.124;5.422;2023-05-19T08:43:16;102709.84;;;16.27;46.78
71964;BME280;59834;52.124;5.422;2023-05-19T08:45:44;102710.66;;;16.44;47.62
71964;BME280;59834;52.124;5.422;2023-05-19T08:48:16;102704.00;;;16.67;46.68
71964;BME280;59834;52.124;5.422;2023-05-19T08:50:54;102710.66;;;16.88;45.75
71964;BME280;59834;52.124;5.422;2023-05-19T08:53:26;102707.91;;;16.76;44.98
71964;BME280;59834;52.124;5.422;2023-05-19T08:56:13;102702.06;;;16.99;45.88
71964;BME280;59834;52.124;5.422;2023-05-19T08:58:41;102697.53;;;17.30;45.11
71964;BME280;59834;52.124;5.422;2023-05-19T09:01:21;102706.50;;;16.99;43.57
71964;BME280;59834;52.124;5.422;2023-05-19T09:04:15;102693.44;;;16.67;43.86
71964;BME280;59834;52.124;5.422;2023-05-19T09:06:42;102693.97;;;16.27;44.16
71964;BME280;59834;52.124;5.422;2023-05-19T09:09:12;102692.03;;;16.15;45.62
71964;BME280;59834;52.124;5.422;2023-05-19T09:11:45;102688.72;;;16.12;44.83
71964;BME280;59834;52.124;5.422;2023-05-19T09:14:13;102685.56;;;16.05;46.25
71964;BME280;59834;52.124;5.422;2023-05-19T09:16:42;102687.78;;;16.13;43.12
71964;BME280;59834;52.124;5.422;2023-05-19T09:19:18;102696.94;;;16.37;43.81
71964;BME280;59834;52.124;5.422;2023-05-19T09:22:00;102683.84;;;16.50;43.81
71964;BME280;59834;52.124;5.422;2023-05-19T09:24:37;102685.84;;;16.61;44.19
71964;BME280;59834;52.124;5.422;2023-05-19T09:27:06;102692.13;;;16.74;43.13
71964;BME280;59834;52.124;5.422;2023-05-19T09:29:33;102691.19;;;16.89;43.23
71964;BME280;59834;52.124;5.422;2023-05-19T09:32:00;102688.84;;;16.85;41.42
71964;BME280;59834;52.124;5.422;2023-05-19T09:34:31;102686.41;;;16.66;41.68
71964;BME280;59834;52.124;5.422;2023-05-19T09:37:01;102681.19;;;16.80;42.55
71964;BME280;59834;52.124;5.422;2023-05-19T09:39:29;102685.00;;;16.90;43.32
71964;BME280;59834;52.124;5.422;2023-05-19T09:41:56;102678.19;;;17.01;42.88
71964;BME280;59834;52.124;5.422;2023-05-19T09:44:25;102677.13;;;17.32;42.84
71964;BME280;59834;52.124;5.422;2023-05-19T09:46:55;102682.19;;;17.49;42.94
71964;BME280;59834;52.124;5.422;2023-05-19T09:49:27;102677.19;;;17.44;41.61
71964;BME280;59834;52.124;5.422;2023-05-19T09:52:01;102679.19;;;17.27;41.80
71964;BME280;59834;52.124;5.422;2023-05-19T09:54:29;102680.66;;;17.04;41.33
71964;BME280;59834;52.124;5.422;2023-05-19T09:57:02;102677.50;;;16.83;42.34
71964;BME280;59834;52.124;5.422;2023-05-19T09:59:31;102676.78;;;16.50;43.20
71964;BME280;59834;52.124;5.422;2023-05-19T10:02:00;102680.94;;;16.55;44.37
71964;BME280;59834;52.124;5.422;2023-05-19T10:04:29;102675.47;;;16.72;43.95
71964;BME280;59834;52.124;5.422;2023-05-19T10:06:57;102670.41;;;16.83;43.20
71964;BME280;59834;52.124;5.422;2023-05-19T10:09:32;102666.06;;;16.96;42.27
71964;BME280;59834;52.124;5.422;2023-05-19T10:12:02;102672.78;;;16.88;42.89
71964;BME280;59834;52.124;5.422;2023-05-19T10:14:32;102663.25;;;16.85;43.40
71964;BME280;59834;52.124;5.422;2023-05-19T10:16:58;102662.13;;;17.04;43.17
71964;BME280;59834;52.124;5.422;2023-05-19T10:19:27;102660.78;;;16.96;44.10
71964;BME280;59834;52.124;5.422;2023-05-19T10:21:54;102659.84;;;17.12;43.61
71964;BME280;59834;52.124;5.422;2023-05-19T10:24:21;102661.47;;;17.14;43.48
71964;BME280;59834;52.124;5.422;2023-05-19T10:29:27;102657.13;;;17.55;42.38
71964;BME280;59834;52.124;5.422;2023-05-19T10:32:05;102651.34;;;17.62;42.85
71964;BME280;59834;52.124;5.422;2023-05-19T10:40:35;102637.50;;;17.72;41.63
71964;BME280;59834;52.124;5.422;2023-05-19T10:43:24;102644.03;;;17.66;42.35
71964;BME280;59834;52.124;5.422;2023-05-19T10:45:59;102640.66;;;17.64;41.53
71964;BME280;59834;52.124;5.422;2023-05-19T10:48:34;102639.41;;;17.70;41.99
71964;BME280;59834;52.124;5.422;2023-05-19T10:51:07;102634.09;;;17.70;42.58
71964;BME280;59834;52.124;5.422;2023-05-19T10:53:42;102637.03;;;17.79;41.78
71964;BME280;59834;52.124;5.422;2023-05-19T10:56:31;102629.66;;;17.97;41.82
71964;BME280;59834;52.124;5.422;2023-05-19T10:59:02;102630.47;;;18.12;40.57
71964;BME280;59834;52.124;5.422;2023-05-19T11:01:33;102636.75;;;17.97;40.95
71964;BME280;59834;52.124;5.422;2023-05-19T11:04:06;102641.41;;;17.93;41.51
71964;BME280;59834;52.124;5.422;2023-05-19T11:06:36;102624.84;;;17.77;41.83
71964;BME280;59834;52.124;5.422;2023-05-19T11:09:14;102621.44;;;18.02;41.29
71964;BME280;59834;52.124;5.422;2023-05-19T11:11:46;102621.31;;;18.03;39.72
71964;BME280;59834;52.124;5.422;2023-05-19T11:14:21;102619.38;;;17.93;38.55
71964;BME280;59834;52.124;5.422;2023-05-19T11:16:50;102617.53;;;18.20;38.76
71964;BME280;59834;52.124;5.422;2023-05-19T11:19:28;102613.84;;;18.48;37.57
71964;BME280;59834;52.124;5.422;2023-05-19T11:21:56;102617.13;;;18.39;37.87
71964;BME280;59834;52.124;5.422;2023-05-19T11:27:21;102617.13;;;18.26;38.67
71964;BME280;59834;52.124;5.422;2023-05-19T11:29:49;102616.50;;;18.35;36.91
71964;BME280;59834;52.124;5.422;2023-05-19T11:32:20;102604.41;;;18.31;37.20
71964;BME280;59834;52.124;5.422;2023-05-19T11:34:50;102609.72;;;18.31;39.21
71964;BME280;59834;52.124;5.422;2023-05-19T11:37:19;102604.53;;;18.68;38.53
71964;BME280;59834;52.124;5.422;2023-05-19T11:39:46;102597.28;;;18.57;38.70
71964;BME280;59834;52.124;5.422;2023-05-19T11:42:13;102595.81;;;18.66;38.80
71964;BME280;59834;52.124;5.422;2023-05-19T11:44:40;102599.09;;;18.57;38.29
71964;BME280;59834;52.124;5.422;2023-05-19T11:47:06;102601.84;;;18.43;37.95
71964;BME280;59834;52.124;5.422;2023-05-19T11:49:35;102596.13;;;18.49;38.55
71964;BME280;59834;52.124;5.422;2023-05-19T11:52:03;102591.50;;;18.78;38.67
71964;BME280;59834;52.124;5.422;2023-05-19T11:54:33;102582.56;;;18.92;35.62
71964;BME280;59834;52.124;5.422;2023-05-19T11:57:02;102586.28;;;18.76;37.28
71964;BME280;59834;52.124;5.422;2023-05-19T11:59:33;102583.63;;;18.89;37.37
71964;BME280;59834;52.124;5.422;2023-05-19T12:02:15;102587.66;;;18.95;35.82
71964;BME280;59834;52.124;5.422;2023-05-19T12:04:42;102586.25;;;18.64;36.58
71964;BME280;59834;52.124;5.422;2023-05-19T12:07:12;102586.78;;;18.69;37.63
71964;BME280;59834;52.124;5.422;2023-05-19T12:09:46;102585.00;;;18.95;37.24
71964;BME280;59834;52.124;5.422;2023-05-19T12:12:21;102584.13;;;19.31;37.39
71964;BME280;59834;52.124;5.422;2023-05-19T12:14:51;102586.06;;;19.29;36.57
71964;BME280;59834;52.124;5.422;2023-05-19T12:17:20;102580.53;;;19.32;35.94
71964;BME280;59834;52.124;5.422;2023-05-19T12:19:52;102583.56;;;19.39;35.40
71964;BME280;59834;52.124;5.422;2023-05-19T12:22:19;102590.66;;;19.14;34.36
71964;BME280;59834;52.124;5.422;2023-05-19T12:24:47;102585.22;;;19.28;35.07
71964;BME280;59834;52.124;5.422;2023-05-19T12:27:18;102584.53;;;19.62;34.71
71964;BME280;59834;52.124;5.422;2023-05-19T12:29:50;102576.09;;;19.20;34.68
71964;BME280;59834;52.124;5.422;2023-05-19T12:32:21;102588.28;;;18.86;34.91
71964;BME280;59834;52.124;5.422;2023-05-19T12:34:52;102575.03;;;18.73;36.27
71964;BME280;59834;52.124;5.422;2023-05-19T12:37:25;102571.13;;;18.78;35.88
71964;BME280;59834;52.124;5.422;2023-05-19T12:39:54;102568.97;;;18.83;35.21
71964;BME280;59834;52.124;5.422;2023-05-19T12:42:29;102563.38;;;18.75;34.46
71964;BME280;59834;52.124;5.422;2023-05-19T12:45:05;102556.44;;;18.86;35.46
71964;BME280;59834;52.124;5.422;2023-05-19T12:47:33;102547.91;;;19.06;38.73
71964;BME280;59834;52.124;5.422;2023-05-19T12:52:32;102557.75;;;19.41;39.40
71964;BME280;59834;52.124;5.422;2023-05-19T12:55:02;102552.59;;;19.26;38.20
71964;BME280;59834;52.124;5.422;2023-05-19T12:57:35;102550.75;;;19.40;35.29
71964;BME280;59834;52.124;5.422;2023-05-19T13:00:04;102546.50;;;19.37;34.49
71964;BME280;59834;52.124;5.422;2023-05-19T13:02:59;102551.41;;;19.30;37.06
71964;BME280;59834;52.124;5.422;2023-05-19T13:05:28;102549.94;;;19.26;36.94
71964;BME280;59834;52.124;5.422;2023-05-19T13:08:08;102540.53;;;19.22;37.58
71964;BME280;59834;52.124;5.422;2023-05-19T13:10:37;102539.16;;;19.41;36.79
71964;BME280;59834;52.124;5.422;2023-05-19T13:13:06;102540.97;;;19.40;37.55
71964;BME280;59834;52.124;5.422;2023-05-19T13:15:35;102542.72;;;19.28;36.24
71964;BME280;59834;52.124;5.422;2023-05-19T13:18:05;102542.50;;;19.31;37.31
71964;BME280;59834;52.124;5.422;2023-05-19T13:20:36;102546.31;;;19.27;37.53
71964;BME280;59834;52.124;5.422;2023-05-19T13:23:04;102545.44;;;19.40;37.75
71964;BME280;59834;52.124;5.422;2023-05-19T13:25:34;102538.22;;;19.42;37.80